sensor_id;sensor_type;location;lat;lon;timestamp;P1;durP1;ratioP1;P2;durP2;ratioP2
15094;SDS011;7648;52.264;9.632;2023-04-15T00:01:50;4.23;;;3.83;;
15094;SDS011;7648;52.264;9.632;2023-04-15T00:05:52;4.83;;;4.43;;
15094;SDS011;7648;52.264;9.632;2023-04-15T00:09:54;5.97;;;4.53;;
15094;SDS011;7648;52.264;9.632;2023-04-15T00:13:56;3.77;;;3.47;;
15094;SDS011;7648;52.264;9.632;2023-04-15T00:18:00;3.87;;;3.57;;
15094;SDS011;7648;52.264;9.632;2023-04-15T00:22:03;3.33;;;3.03;;
15094;SDS011;7648;52.264;9.632;2023-04-15T00:26:06;3.17;;;2.97;;
15094;SDS011;7648;52.264;9.632;2023-04-15T00:30:08;3.80;;;3.40;;
15094;SDS011;7648;52.264;9.632;2023-04-15T00:34:12;4.40;;;3.97;;
15094;SDS011;7648;52.264;9.632;2023-04-15T00:38:16;4.87;;;4.37;;
15094;SDS011;7648;52.264;9.632;2023-04-15T00:42:18;3.30;;;3.10;;
15094;SDS011;7648;52.264;9.632;2023-04-15T00:46:21;4.10;;;3.80;;
15094;SDS011;7648;52.264;9.632;2023-04-15T00:50:25;3.83;;;3.53;;
15094;SDS011;7648;52.264;9.632;2023-04-15T00:54:27;3.93;;;3.73;;
15094;SDS011;7648;52.264;9.632;2023-04-15T00:58:29;4.00;;;3.67;;
15094;SDS011;7648;52.264;9.632;2023-04-15T01:02:31;4.00;;;3.70;;
15094;SDS011;7648;52.264;9.632;2023-04-15T01:06:34;4.07;;;3.67;;
15094;SDS011;7648;52.264;9.632;2023-04-15T01:10:36;4.37;;;4.07;;
15094;SDS011;7648;52.264;9.632;2023-04-15T01:14:38;3.73;;;3.43;;
15094;SDS011;7648;52.264;9.632;2023-04-15T01:18:40;4.87;;;4.47;;
15094;SDS011;7648;52.264;9.632;2023-04-15T01:22:43;4.87;;;4.47;;
15094;SDS011;7648;52.264;9.632;2023-04-15T01:26:47;4.63;;;4.27;;
15094;SDS011;7648;52.264;9.632;2023-04-15T01:30:49;7.17;;;5.00;;
15094;SDS011;7648;52.264;9.632;2023-04-15T01:34:51;4.33;;;4.03;;
15094;SDS011;7648;52.264;9.632;2023-04-15T01:38:57;5.10;;;4.60;;
15094;SDS011;7648;52.264;9.632;2023-04-15T01:43:00;4.40;;;4.00;;
15094;SDS011;7648;52.264;9.632;2023-04-15T01:47:02;4.70;;;4.27;;
15094;SDS011;7648;52.264;9.632;2023-04-15T01:51:04;4.17;;;3.77;;
15094;SDS011;7648;52.264;9.632;2023-04-15T01:55:07;4.40;;;4.00;;
15094;SDS011;7648;52.264;9.632;2023-04-15T01:59:11;4.27;;;3.87;;
15094;SDS011;7648;52.264;9.632;2023-04-15T02:03:13;5.17;;;4.67;;
15094;SDS011;7648;52.264;9.632;2023-04-15T02:07:15;4.20;;;3.90;;
15094;SDS011;7648;52.264;9.632;2023-04-15T02:11:17;8.37;;;5.30;;
15094;SDS011;7648;52.264;9.632;2023-04-15T02:15:21;5.00;;;4.57;;
15094;SDS011;7648;52.264;9.632;2023-04-15T02:19:23;6.03;;;5.40;;
15094;SDS011;7648;52.264;9.632;2023-04-15T02:23:25;5.17;;;4.67;;
15094;SDS011;7648;52.264;9.632;2023-04-15T02:27:27;7.00;;;5.27;;
15094;SDS011;7648;52.264;9.632;2023-04-15T02:31:31;8.03;;;4.93;;
15094;SDS011;7648;52.264;9.632;2023-04-15T02:35:36;5.73;;;5.13;;
15094;SDS011;7648;52.264;9.632;2023-04-15T02:39:41;7.30;;;5.03;;
15094;SDS011;7648;52.264;9.632;2023-04-15T02:43:43;5.83;;;5.23;;
15094;SDS011;7648;52.264;9.632;2023-04-15T02:47:48;6.30;;;4.73;;
15094;SDS011;7648;52.264;9.632;2023-04-15T02:51:50;6.70;;;5.67;;
15094;SDS011;7648;52.264;9.632;2023-04-15T02:55:53;9.57;;;5.67;;
15094;SDS011;7648;52.264;9.632;2023-04-15T02:59:55;7.83;;;5.87;;
15094;SDS011;7648;52.264;9.632;2023-04-15T03:03:59;6.30;;;5.63;;
15094;SDS011;7648;52.264;9.632;2023-04-15T03:08:01;6.70;;;5.13;;
15094;SDS011;7648;52.264;9.632;2023-04-15T03:12:02;7.43;;;5.97;;
15094;SDS011;7648;52.264;9.632;2023-04-15T03:16:05;8.17;;;6.27;;
15094;SDS011;7648;52.264;9.632;2023-04-15T03:20:09;7.30;;;6.20;;
15094;SDS011;7648;52.264;9.632;2023-04-15T03:24:11;9.97;;;7.27;;
15094;SDS011;7648;52.264;9.632;2023-04-15T03:28:13;8.20;;;6.33;;
15094;SDS011;7648;52.264;9.632;2023-04-15T03:32:15;6.97;;;6.30;;
15094;SDS011;7648;52.264;9.632;2023-04-15T03:36:18;9.83;;;6.90;;
15094;SDS011;7648;52.264;9.632;2023-04-15T03:40:20;7.70;;;6.90;;
15094;SDS011;7648;52.264;9.632;2023-04-15T03:44:22;10.93;;;7.63;;
15094;SDS011;7648;52.264;9.632;2023-04-15T03:48:24;10.53;;;7.17;;
15094;SDS011;7648;52.264;9.632;2023-04-15T03:52:27;11.77;;;7.67;;
15094;SDS011;7648;52.264;9.632;2023-04-15T03:56:29;9.20;;;7.10;;
15094;SDS011;7648;52.264;9.632;2023-04-15T04:00:31;9.93;;;6.83;;
15094;SDS011;7648;52.264;9.632;2023-04-15T04:04:33;9.93;;;7.60;;
15094;SDS011;7648;52.264;9.632;2023-04-15T04:08:36;11.30;;;7.60;;
15094;SDS011;7648;52.264;9.632;2023-04-15T04:12:38;10.07;;;7.67;;
15094;SDS011;7648;52.264;9.632;2023-04-15T04:16:40;10.57;;;7.67;;
15094;SDS011;7648;52.264;9.632;2023-04-15T04:20:42;11.13;;;8.27;;
15094;SDS011;7648;52.264;9.632;2023-04-15T04:24:45;12.43;;;8.43;;
15094;SDS011;7648;52.264;9.632;2023-04-15T04:28:47;13.47;;;8.90;;
15094;SDS011;7648;52.264;9.632;2023-04-15T04:32:49;12.17;;;8.73;;
15094;SDS011;7648;52.264;9.632;2023-04-15T04:36:51;12.90;;;8.57;;
15094;SDS011;7648;52.264;9.632;2023-04-15T04:40:54;12.37;;;8.67;;
15094;SDS011;7648;52.264;9.632;2023-04-15T04:44:56;12.87;;;8.57;;
15094;SDS011;7648;52.264;9.632;2023-04-15T04:48:57;12.00;;;8.60;;
15094;SDS011;7648;52.264;9.632;2023-04-15T04:52:59;13.00;;;9.10;;
15094;SDS011;7648;52.264;9.632;2023-04-15T04:57:03;12.47;;;9.00;;
15094;SDS011;7648;52.264;9.632;2023-04-15T05:01:06;13.50;;;8.77;;
15094;SDS011;7648;52.264;9.632;2023-04-15T05:05:09;14.33;;;9.20;;
15094;SDS011;7648;52.264;9.632;2023-04-15T05:09:12;11.50;;;8.33;;
15094;SDS011;7648;52.264;9.632;2023-04-15T05:13:15;12.00;;;8.90;;
15094;SDS011;7648;52.264;9.632;2023-04-15T05:17:17;15.47;;;9.83;;
15094;SDS011;7648;52.264;9.632;2023-04-15T05:21:19;17.40;;;10.23;;
15094;SDS011;7648;52.264;9.632;2023-04-15T05:25:21;13.77;;;9.43;;
15094;SDS011;7648;52.264;9.632;2023-04-15T05:29:24;11.43;;;8.53;;
15094;SDS011;7648;52.264;9.632;2023-04-15T05:33:26;13.90;;;8.63;;
15094;SDS011;7648;52.264;9.632;2023-04-15T05:37:28;12.67;;;8.77;;
15094;SDS011;7648;52.264;9.632;2023-04-15T05:41:30;11.47;;;8.37;;
15094;SDS011;7648;52.264;9.632;2023-04-15T05:45:33;14.13;;;9.60;;
15094;SDS011;7648;52.264;9.632;2023-04-15T05:49:35;12.53;;;8.80;;
15094;SDS011;7648;52.264;9.632;2023-04-15T05:53:37;13.40;;;9.83;;
15094;SDS011;7648;52.264;9.632;2023-04-15T05:57:40;12.30;;;8.53;;
15094;SDS011;7648;52.264;9.632;2023-04-15T06:01:43;10.97;;;8.00;;
15094;SDS011;7648;52.264;9.632;2023-04-15T06:05:45;14.97;;;8.30;;
15094;SDS011;7648;52.264;9.632;2023-04-15T06:09:47;13.87;;;9.03;;
15094;SDS011;7648;52.264;9.632;2023-04-15T06:13:49;9.60;;;7.70;;
15094;SDS011;7648;52.264;9.632;2023-04-15T06:17:52;9.20;;;7.47;;
15094;SDS011;7648;52.264;9.632;2023-04-15T06:21:54;10.27;;;6.77;;
15094;SDS011;7648;52.264;9.632;2023-04-15T06:25:56;11.93;;;7.57;;
15094;SDS011;7648;52.264;9.632;2023-04-15T06:29:58;10.33;;;7.50;;
15094;SDS011;7648;52.264;9.632;2023-04-15T06:34:01;10.23;;;6.50;;
15094;SDS011;7648;52.264;9.632;2023-04-15T06:38:03;9.43;;;6.60;;
15094;SDS011;7648;52.264;9.632;2023-04-15T06:42:05;9.70;;;6.57;;
15094;SDS011;7648;52.264;9.632;2023-04-15T06:46:07;7.10;;;6.17;;
15094;SDS011;7648;52.264;9.632;2023-04-15T06:50:10;9.03;;;6.40;;
15094;SDS011;7648;52.264;9.632;2023-04-15T06:54:12;5.63;;;4.90;;
15094;SDS011;7648;52.264;9.632;2023-04-15T06:58:14;6.60;;;5.87;;
15094;SDS011;7648;52.264;9.632;2023-04-15T07:02:16;8.80;;;5.97;;
15094;SDS011;7648;52.264;9.632;2023-04-15T07:06:19;6.77;;;4.90;;
15094;SDS011;7648;52.264;9.632;2023-04-15T07:10:21;5.27;;;4.83;;
15094;SDS011;7648;52.264;9.632;2023-04-15T07:14:23;4.73;;;4.33;;
15094;SDS011;7648;52.264;9.632;2023-04-15T07:18:25;5.53;;;4.87;;
15094;SDS011;7648;52.264;9.632;2023-04-15T07:22:28;5.20;;;4.60;;
15094;SDS011;7648;52.264;9.632;2023-04-15T07:26:30;4.00;;;3.60;;
15094;SDS011;7648;52.264;9.632;2023-04-15T07:30:31;4.20;;;3.80;;
15094;SDS011;7648;52.264;9.632;2023-04-15T07:34:33;5.40;;;4.47;;
15094;SDS011;7648;52.264;9.632;2023-04-15T07:38:36;4.97;;;4.57;;
15094;SDS011;7648;52.264;9.632;2023-04-15T07:42:39;5.13;;;4.57;;
15094;SDS011;7648;52.264;9.632;2023-04-15T07:46:41;4.93;;;4.07;;
15094;SDS011;7648;52.264;9.632;2023-04-15T07:50:43;5.73;;;4.73;;
15094;SDS011;7648;52.264;9.632;2023-04-15T07:54:46;4.23;;;3.83;;
15094;SDS011;7648;52.264;9.632;2023-04-15T07:58:48;4.37;;;3.97;;
15094;SDS011;7648;52.264;9.632;2023-04-15T08:02:50;4.60;;;3.97;;
15094;SDS011;7648;52.264;9.632;2023-04-15T08:06:52;4.40;;;4.00;;
15094;SDS011;7648;52.264;9.632;2023-04-15T08:10:56;3.60;;;3.33;;
15094;SDS011;7648;52.264;9.632;2023-04-15T08:14:58;4.53;;;4.13;;
15094;SDS011;7648;52.264;9.632;2023-04-15T08:19:01;4.77;;;4.37;;
15094;SDS011;7648;52.264;9.632;2023-04-15T08:23:02;4.40;;;4.00;;
15094;SDS011;7648;52.264;9.632;2023-04-15T08:27:06;4.50;;;3.97;;
15094;SDS011;7648;52.264;9.632;2023-04-15T08:31:08;4.20;;;3.80;;
15094;SDS011;7648;52.264;9.632;2023-04-15T08:35:10;3.90;;;3.60;;
15094;SDS011;7648;52.264;9.632;2023-04-15T08:39:12;4.73;;;3.60;;
15094;SDS011;7648;52.264;9.632;2023-04-15T08:43:17;3.90;;;3.60;;
15094;SDS011;7648;52.264;9.632;2023-04-15T08:47:23;3.80;;;3.40;;
15094;SDS011;7648;52.264;9.632;2023-04-15T08:51:30;3.30;;;3.00;;
15094;SDS011;7648;52.264;9.632;2023-04-15T08:55:32;4.70;;;4.30;;
15094;SDS011;7648;52.264;9.632;2023-04-15T08:59:40;3.47;;;3.17;;
15094;SDS011;7648;52.264;9.632;2023-04-15T09:03:42;3.50;;;3.20;;
15094;SDS011;7648;52.264;9.632;2023-04-15T09:07:44;3.27;;;3.07;;
15094;SDS011;7648;52.264;9.632;2023-04-15T09:11:46;3.47;;;3.17;;
15094;SDS011;7648;52.264;9.632;2023-04-15T09:15:50;4.97;;;3.40;;
15094;SDS011;7648;52.264;9.632;2023-04-15T09:20:06;3.53;;;3.30;;
15094;SDS011;7648;52.264;9.632;2023-04-15T09:24:09;3.70;;;3.40;;
15094;SDS011;7648;52.264;9.632;2023-04-15T09:28:11;3.10;;;2.80;;
15094;SDS011;7648;52.264;9.632;2023-04-15T09:32:14;3.33;;;3.13;;
15094;SDS011;7648;52.264;9.632;2023-04-15T09:36:16;3.43;;;3.20;;
15094;SDS011;7648;52.264;9.632;2023-04-15T09:40:29;3.67;;;3.37;;
15094;SDS011;7648;52.264;9.632;2023-04-15T09:44:32;3.37;;;3.17;;
15094;SDS011;7648;52.264;9.632;2023-04-15T09:48:36;4.03;;;3.73;;
15094;SDS011;7648;52.264;9.632;2023-04-15T09:52:40;3.87;;;3.57;;
15094;SDS011;7648;52.264;9.632;2023-04-15T09:56:43;3.47;;;3.17;;
15094;SDS011;7648;52.264;9.632;2023-04-15T10:00:46;3.30;;;3.00;;
15094;SDS011;7648;52.264;9.632;2023-04-15T10:04:50;3.13;;;2.93;;
15094;SDS011;7648;52.264;9.632;2023-04-15T10:08:53;3.47;;;3.17;;
15094;SDS011;7648;52.264;9.632;2023-04-15T10:12:56;3.90;;;3.50;;
15094;SDS011;7648;52.264;9.632;2023-04-15T10:16:58;3.07;;;2.77;;
15094;SDS011;7648;52.264;9.632;2023-04-15T10:21:04;2.37;;;2.17;;
15094;SDS011;7648;52.264;9.632;2023-04-15T10:25:07;2.77;;;2.63;;
15094;SDS011;7648;52.264;9.632;2023-04-15T10:29:10;3.30;;;3.00;;
15094;SDS011;7648;52.264;9.632;2023-04-15T10:33:12;3.10;;;2.77;;
15094;SDS011;7648;52.264;9.632;2023-04-15T10:37:20;3.90;;;3.37;;
15094;SDS011;7648;52.264;9.632;2023-04-15T10:41:23;3.40;;;3.10;;
15094;SDS011;7648;52.264;9.632;2023-04-15T10:45:27;4.20;;;3.80;;
15094;SDS011;7648;52.264;9.632;2023-04-15T10:49:33;3.87;;;3.57;;
15094;SDS011;7648;52.264;9.632;2023-04-15T10:53:36;3.63;;;3.33;;
15094;SDS011;7648;52.264;9.632;2023-04-15T10:57:39;5.80;;;4.53;;
15094;SDS011;7648;52.264;9.632;2023-04-15T11:01:54;4.00;;;3.67;;
15094;SDS011;7648;52.264;9.632;2023-04-15T11:05:59;5.53;;;4.50;;
15094;SDS011;7648;52.264;9.632;2023-04-15T11:10:02;6.23;;;4.67;;
15094;SDS011;7648;52.264;9.632;2023-04-15T11:14:05;6.27;;;5.63;;
15094;SDS011;7648;52.264;9.632;2023-04-15T11:18:15;7.53;;;4.90;;
15094;SDS011;7648;52.264;9.632;2023-04-15T11:22:18;5.83;;;5.03;;
15094;SDS011;7648;52.264;9.632;2023-04-15T11:26:24;6.30;;;5.40;;
15094;SDS011;7648;52.264;9.632;2023-04-15T11:30:28;8.30;;;6.07;;
15094;SDS011;7648;52.264;9.632;2023-04-15T11:34:31;7.57;;;6.20;;
15094;SDS011;7648;52.264;9.632;2023-04-15T11:38:34;10.10;;;6.23;;
15094;SDS011;7648;52.264;9.632;2023-04-15T11:42:38;8.77;;;6.77;;
15094;SDS011;7648;52.264;9.632;2023-04-15T11:46:40;14.63;;;8.23;;
15094;SDS011;7648;52.264;9.632;2023-04-15T11:50:42;12.23;;;8.73;;
15094;SDS011;7648;52.264;9.632;2023-04-15T11:54:44;12.47;;;8.53;;
15094;SDS011;7648;52.264;9.632;2023-04-15T11:58:48;13.43;;;8.27;;
15094;SDS011;7648;52.264;9.632;2023-04-15T12:07:12;16.27;;;10.10;;
15094;SDS011;7648;52.264;9.632;2023-04-15T12:11:14;15.70;;;10.53;;
15094;SDS011;7648;52.264;9.632;2023-04-15T12:15:17;17.73;;;10.70;;
15094;SDS011;7648;52.264;9.632;2023-04-15T12:19:23;23.47;;;11.23;;
15094;SDS011;7648;52.264;9.632;2023-04-15T12:23:25;20.93;;;11.47;;
15094;SDS011;7648;52.264;9.632;2023-04-15T12:27:27;21.63;;;13.10;;
15094;SDS011;7648;52.264;9.632;2023-04-15T12:31:30;22.03;;;12.53;;
15094;SDS011;7648;52.264;9.632;2023-04-15T12:35:35;24.20;;;15.80;;
15094;SDS011;7648;52.264;9.632;2023-04-15T12:39:38;23.70;;;13.23;;
15094;SDS011;7648;52.264;9.632;2023-04-15T12:43:42;24.37;;;14.60;;
15094;SDS011;7648;52.264;9.632;2023-04-15T12:47:46;26.60;;;14.87;;
15094;SDS011;7648;52.264;9.632;2023-04-15T12:51:48;34.07;;;17.77;;
15094;SDS011;7648;52.264;9.632;2023-04-15T12:55:50;25.07;;;14.90;;
15094;SDS011;7648;52.264;9.632;2023-04-15T12:59:52;26.57;;;16.30;;
15094;SDS011;7648;52.264;9.632;2023-04-15T13:03:56;29.60;;;17.20;;
15094;SDS011;7648;52.264;9.632;2023-04-15T13:07:58;36.67;;;17.00;;
15094;SDS011;7648;52.264;9.632;2023-04-15T13:11:59;33.93;;;18.70;;
15094;SDS011;7648;52.264;9.632;2023-04-15T13:16:03;32.63;;;17.67;;
15094;SDS011;7648;52.264;9.632;2023-04-15T13:20:07;36.07;;;19.23;;
15094;SDS011;7648;52.264;9.632;2023-04-15T13:24:10;32.63;;;18.20;;
15094;SDS011;7648;52.264;9.632;2023-04-15T13:28:12;36.63;;;18.70;;
15094;SDS011;7648;52.264;9.632;2023-04-15T13:32:13;33.90;;;18.20;;
15094;SDS011;7648;52.264;9.632;2023-04-15T13:36:17;36.00;;;19.37;;
15094;SDS011;7648;52.264;9.632;2023-04-15T13:40:18;41.13;;;19.20;;
15094;SDS011;7648;52.264;9.632;2023-04-15T13:44:20;34.10;;;18.93;;
15094;SDS011;7648;52.264;9.632;2023-04-15T13:48:22;36.70;;;19.60;;
15094;SDS011;7648;52.264;9.632;2023-04-15T13:52:25;41.60;;;19.87;;
15094;SDS011;7648;52.264;9.632;2023-04-15T13:56:27;36.50;;;20.20;;
15094;SDS011;7648;52.264;9.632;2023-04-15T14:00:29;37.10;;;18.70;;
15094;SDS011;7648;52.264;9.632;2023-04-15T14:04:31;32.93;;;18.30;;
15094;SDS011;7648;52.264;9.632;2023-04-15T14:08:35;36.93;;;20.57;;
15094;SDS011;7648;52.264;9.632;2023-04-15T14:12:37;32.60;;;19.83;;
15094;SDS011;7648;52.264;9.632;2023-04-15T14:16:38;33.77;;;21.10;;
15094;SDS011;7648;52.264;9.632;2023-04-15T14:20:40;33.83;;;20.07;;
15094;SDS011;7648;52.264;9.632;2023-04-15T14:24:44;35.50;;;19.33;;
15094;SDS011;7648;52.264;9.632;2023-04-15T14:28:47;30.30;;;18.37;;
15094;SDS011;7648;52.264;9.632;2023-04-15T14:32:49;31.37;;;18.57;;
15094;SDS011;7648;52.264;9.632;2023-04-15T14:36:51;31.73;;;18.30;;
15094;SDS011;7648;52.264;9.632;2023-04-15T14:40:55;28.23;;;16.47;;
15094;SDS011;7648;52.264;9.632;2023-04-15T14:44:56;30.93;;;16.87;;
15094;SDS011;7648;52.264;9.632;2023-04-15T14:48:58;29.47;;;18.43;;
15094;SDS011;7648;52.264;9.632;2023-04-15T14:53:00;28.50;;;17.87;;
15094;SDS011;7648;52.264;9.632;2023-04-15T14:57:04;28.03;;;17.87;;
15094;SDS011;7648;52.264;9.632;2023-04-15T15:01:06;29.07;;;16.93;;
15094;SDS011;7648;52.264;9.632;2023-04-15T15:05:09;28.60;;;18.20;;
15094;SDS011;7648;52.264;9.632;2023-04-15T15:09:11;30.07;;;18.10;;
15094;SDS011;7648;52.264;9.632;2023-04-15T15:13:15;27.87;;;17.97;;
15094;SDS011;7648;52.264;9.632;2023-04-15T15:17:18;26.07;;;17.60;;
15094;SDS011;7648;52.264;9.632;2023-04-15T15:21:19;31.40;;;19.37;;
15094;SDS011;7648;52.264;9.632;2023-04-15T15:25:21;28.43;;;17.50;;
15094;SDS011;7648;52.264;9.632;2023-04-15T15:29:24;26.63;;;17.50;;
15094;SDS011;7648;52.264;9.632;2023-04-15T15:33:27;27.93;;;17.37;;
15094;SDS011;7648;52.264;9.632;2023-04-15T15:37:29;26.47;;;16.93;;
15094;SDS011;7648;52.264;9.632;2023-04-15T15:41:31;26.90;;;18.00;;
15094;SDS011;7648;52.264;9.632;2023-04-15T15:45:34;27.80;;;17.73;;
15094;SDS011;7648;52.264;9.632;2023-04-15T15:49:36;27.23;;;17.37;;
15094;SDS011;7648;52.264;9.632;2023-04-15T15:53:39;28.53;;;17.50;;
15094;SDS011;7648;52.264;9.632;2023-04-15T15:57:43;29.17;;;16.47;;
15094;SDS011;7648;52.264;9.632;2023-04-15T16:01:46;29.47;;;17.27;;
15094;SDS011;7648;52.264;9.632;2023-04-15T16:05:49;30.93;;;16.83;;
15094;SDS011;7648;52.264;9.632;2023-04-15T16:09:51;25.33;;;17.73;;
15094;SDS011;7648;52.264;9.632;2023-04-15T16:13:53;29.90;;;17.37;;
15094;SDS011;7648;52.264;9.632;2023-04-15T16:17:56;24.40;;;16.80;;
15094;SDS011;7648;52.264;9.632;2023-04-15T16:21:58;27.63;;;16.90;;
15094;SDS011;7648;52.264;9.632;2023-04-15T16:26:00;28.10;;;17.53;;
15094;SDS011;7648;52.264;9.632;2023-04-15T16:30:02;27.30;;;17.30;;
15094;SDS011;7648;52.264;9.632;2023-04-15T16:34:06;24.53;;;16.33;;
15094;SDS011;7648;52.264;9.632;2023-04-15T16:38:08;27.90;;;18.07;;
15094;SDS011;7648;52.264;9.632;2023-04-15T16:42:10;29.13;;;18.17;;
15094;SDS011;7648;52.264;9.632;2023-04-15T16:46:12;28.57;;;17.47;;
15094;SDS011;7648;52.264;9.632;2023-04-15T16:50:17;28.57;;;17.53;;
15094;SDS011;7648;52.264;9.632;2023-04-15T16:54:18;29.73;;;17.77;;
15094;SDS011;7648;52.264;9.632;2023-04-15T16:58:20;29.10;;;18.27;;
15094;SDS011;7648;52.264;9.632;2023-04-15T17:02:23;28.53;;;17.50;;
15094;SDS011;7648;52.264;9.632;2023-04-15T17:06:26;29.33;;;19.53;;
15094;SDS011;7648;52.264;9.632;2023-04-15T17:10:28;29.37;;;17.10;;
15094;SDS011;7648;52.264;9.632;2023-04-15T17:14:31;29.07;;;18.60;;
15094;SDS011;7648;52.264;9.632;2023-04-15T17:18:34;28.60;;;17.77;;
15094;SDS011;7648;52.264;9.632;2023-04-15T17:22:37;31.67;;;18.07;;
15094;SDS011;7648;52.264;9.632;2023-04-15T17:26:39;28.83;;;18.83;;
15094;SDS011;7648;52.264;9.632;2023-04-15T17:30:41;32.47;;;20.40;;
15094;SDS011;7648;52.264;9.632;2023-04-15T17:34:43;28.40;;;17.90;;
15094;SDS011;7648;52.264;9.632;2023-04-15T17:38:46;27.20;;;18.50;;
15094;SDS011;7648;52.264;9.632;2023-04-15T17:42:48;27.37;;;17.73;;
15094;SDS011;7648;52.264;9.632;2023-04-15T17:46:50;26.93;;;18.37;;
15094;SDS011;7648;52.264;9.632;2023-04-15T17:50:52;25.73;;;17.27;;
15094;SDS011;7648;52.264;9.632;2023-04-15T17:54:56;34.27;;;18.40;;
15094;SDS011;7648;52.264;9.632;2023-04-15T17:58:58;28.00;;;18.73;;
15094;SDS011;7648;52.264;9.632;2023-04-15T18:03:01;29.07;;;18.33;;
15094;SDS011;7648;52.264;9.632;2023-04-15T18:07:03;29.53;;;19.20;;
15094;SDS011;7648;52.264;9.632;2023-04-15T18:11:06;28.87;;;18.73;;
15094;SDS011;7648;52.264;9.632;2023-04-15T18:15:11;29.33;;;19.47;;
15094;SDS011;7648;52.264;9.632;2023-04-15T18:19:13;29.60;;;18.10;;
15094;SDS011;7648;52.264;9.632;2023-04-15T18:23:15;29.37;;;18.67;;
15094;SDS011;7648;52.264;9.632;2023-04-15T18:27:19;27.30;;;18.13;;
15094;SDS011;7648;52.264;9.632;2023-04-15T18:31:21;31.87;;;19.93;;
15094;SDS011;7648;52.264;9.632;2023-04-15T18:35:23;32.37;;;18.70;;
15094;SDS011;7648;52.264;9.632;2023-04-15T18:39:24;26.73;;;18.10;;
15094;SDS011;7648;52.264;9.632;2023-04-15T18:43:28;24.13;;;18.00;;
15094;SDS011;7648;52.264;9.632;2023-04-15T18:47:30;28.10;;;18.80;;
15094;SDS011;7648;52.264;9.632;2023-04-15T18:51:32;25.00;;;17.53;;
15094;SDS011;7648;52.264;9.632;2023-04-15T18:55:34;28.37;;;19.40;;
15094;SDS011;7648;52.264;9.632;2023-04-15T18:59:37;25.90;;;18.63;;
15094;SDS011;7648;52.264;9.632;2023-04-15T19:03:39;26.90;;;17.60;;
15094;SDS011;7648;52.264;9.632;2023-04-15T19:07:41;22.60;;;16.07;;
15094;SDS011;7648;52.264;9.632;2023-04-15T19:11:43;21.83;;;16.30;;
15094;SDS011;7648;52.264;9.632;2023-04-15T19:15:46;26.87;;;18.83;;
15094;SDS011;7648;52.264;9.632;2023-04-15T19:19:48;27.40;;;17.60;;
15094;SDS011;7648;52.264;9.632;2023-04-15T19:23:49;27.90;;;18.07;;
15094;SDS011;7648;52.264;9.632;2023-04-15T19:27:51;26.93;;;18.27;;
15094;SDS011;7648;52.264;9.632;2023-04-15T19:31:54;24.00;;;17.20;;
15094;SDS011;7648;52.264;9.632;2023-04-15T19:35:56;27.40;;;17.53;;
15094;SDS011;7648;52.264;9.632;2023-04-15T19:40:01;25.20;;;17.17;;
15094;SDS011;7648;52.264;9.632;2023-04-15T19:44:03;28.20;;;18.57;;
15094;SDS011;7648;52.264;9.632;2023-04-15T19:48:06;31.57;;;17.90;;
15094;SDS011;7648;52.264;9.632;2023-04-15T19:52:08;26.40;;;18.30;;
15094;SDS011;7648;52.264;9.632;2023-04-15T19:56:10;23.83;;;17.43;;
15094;SDS011;7648;52.264;9.632;2023-04-15T20:00:12;28.77;;;18.43;;
15094;SDS011;7648;52.264;9.632;2023-04-15T20:04:15;27.30;;;18.20;;
15094;SDS011;7648;52.264;9.632;2023-04-15T20:08:17;25.10;;;18.37;;
15094;SDS011;7648;52.264;9.632;2023-04-15T20:12:19;23.03;;;17.03;;
15094;SDS011;7648;52.264;9.632;2023-04-15T20:16:21;29.63;;;19.10;;
15094;SDS011;7648;52.264;9.632;2023-04-15T20:20:24;26.40;;;18.60;;
15094;SDS011;7648;52.264;9.632;2023-04-15T20:24:26;28.47;;;17.23;;
15094;SDS011;7648;52.264;9.632;2023-04-15T20:28:28;27.67;;;19.03;;
15094;SDS011;7648;52.264;9.632;2023-04-15T20:32:30;29.73;;;18.57;;
15094;SDS011;7648;52.264;9.632;2023-04-15T20:36:35;30.27;;;18.07;;
15094;SDS011;7648;52.264;9.632;2023-04-15T20:40:37;29.33;;;18.70;;
15094;SDS011;7648;52.264;9.632;2023-04-15T20:44:39;27.30;;;18.23;;
15094;SDS011;7648;52.264;9.632;2023-04-15T20:48:41;26.33;;;17.90;;
15094;SDS011;7648;52.264;9.632;2023-04-15T20:52:44;26.17;;;18.10;;
15094;SDS011;7648;52.264;9.632;2023-04-15T20:56:46;23.60;;;16.83;;
15094;SDS011;7648;52.264;9.632;2023-04-15T21:00:48;23.13;;;15.73;;
15094;SDS011;7648;52.264;9.632;2023-04-15T21:04:50;20.13;;;14.73;;
15094;SDS011;7648;52.264;9.632;2023-04-15T21:08:53;15.30;;;12.27;;
15094;SDS011;7648;52.264;9.632;2023-04-15T21:12:55;13.20;;;10.77;;
15094;SDS011;7648;52.264;9.632;2023-04-15T21:16:57;11.80;;;10.53;;
15094;SDS011;7648;52.264;9.632;2023-04-15T21:20:59;13.47;;;10.00;;
15094;SDS011;7648;52.264;9.632;2023-04-15T21:25:03;16.40;;;11.27;;
15094;SDS011;7648;52.264;9.632;2023-04-15T21:29:05;13.10;;;10.43;;
15094;SDS011;7648;52.264;9.632;2023-04-15T21:33:07;10.73;;;9.63;;
15094;SDS011;7648;52.264;9.632;2023-04-15T21:37:09;11.53;;;10.30;;
15094;SDS011;7648;52.264;9.632;2023-04-15T21:41:12;10.90;;;9.87;;
15094;SDS011;7648;52.264;9.632;2023-04-15T21:45:14;11.50;;;9.87;;
15094;SDS011;7648;52.264;9.632;2023-04-15T21:49:16;12.73;;;10.97;;
15094;SDS011;7648;52.264;9.632;2023-04-15T21:53:19;14.53;;;10.90;;
15094;SDS011;7648;52.264;9.632;2023-04-15T21:57:22;11.57;;;10.33;;
15094;SDS011;7648;52.264;9.632;2023-04-15T22:01:24;14.93;;;12.33;;
15094;SDS011;7648;52.264;9.632;2023-04-15T22:05:26;14.87;;;11.67;;
15094;SDS011;7648;52.264;9.632;2023-04-15T22:09:28;13.97;;;12.33;;
15094;SDS011;7648;52.264;9.632;2023-04-15T22:13:32;15.77;;;12.53;;
15094;SDS011;7648;52.264;9.632;2023-04-15T22:17:34;14.87;;;13.27;;
15094;SDS011;7648;52.264;9.632;2023-04-15T22:21:35;15.53;;;12.43;;
15094;SDS011;7648;52.264;9.632;2023-04-15T22:25:37;12.07;;;10.87;;
15094;SDS011;7648;52.264;9.632;2023-04-15T22:29:40;15.30;;;12.63;;
15094;SDS011;7648;52.264;9.632;2023-04-15T22:33:42;17.30;;;12.63;;
15094;SDS011;7648;52.264;9.632;2023-04-15T22:37:44;15.60;;;13.40;;
15094;SDS011;7648;52.264;9.632;2023-04-15T22:41:47;14.57;;;11.80;;
15094;SDS011;7648;52.264;9.632;2023-04-15T22:45:51;17.23;;;12.97;;
15094;SDS011;7648;52.264;9.632;2023-04-15T22:49:53;17.27;;;13.27;;
15094;SDS011;7648;52.264;9.632;2023-04-15T22:53:55;15.73;;;12.80;;
15094;SDS011;7648;52.264;9.632;2023-04-15T22:57:57;14.20;;;12.07;;
15094;SDS011;7648;52.264;9.632;2023-04-15T23:02:00;17.33;;;13.97;;
15094;SDS011;7648;52.264;9.632;2023-04-15T23:06:02;15.30;;;12.77;;
15094;SDS011;7648;52.264;9.632;2023-04-15T23:10:05;14.20;;;12.27;;
15094;SDS011;7648;52.264;9.632;2023-04-15T23:14:07;16.47;;;14.03;;
15094;SDS011;7648;52.264;9.632;2023-04-15T23:18:10;17.40;;;13.23;;
15094;SDS011;7648;52.264;9.632;2023-04-15T23:22:12;17.57;;;14.00;;
15094;SDS011;7648;52.264;9.632;2023-04-15T23:26:14;18.57;;;13.57;;
15094;SDS011;7648;52.264;9.632;2023-04-15T23:30:16;18.90;;;14.00;;
15094;SDS011;7648;52.264;9.632;2023-04-15T23:34:20;19.03;;;13.83;;
15094;SDS011;7648;52.264;9.632;2023-04-15T23:38:21;16.50;;;12.67;;
15094;SDS011;7648;52.264;9.632;2023-04-15T23:42:23;20.27;;;13.83;;
15094;SDS011;7648;52.264;9.632;2023-04-15T23:46:25;16.20;;;13.67;;
15094;SDS011;7648;52.264;9.632;2023-04-15T23:50:28;19.63;;;14.43;;
15094;SDS011;7648;52.264;9.632;2023-04-15T23:54:30;19.13;;;15.03;;
15094;SDS011;7648;52.264;9.632;2023-04-15T23:58:32;17.03;;;13.73;;
